createdAt,value
2023-03-20T00:02:18.663Z,77.45
2023-03-20T00:04:45.607Z,77.17
2023-03-20T00:07:13.006Z,77.69
2023-03-20T00:09:39.650Z,77.56
2023-03-20T00:12:06.603Z,78.03
2023-03-20T00:14:34.634Z,77.83
2023-03-20T00:17:02.172Z,77.82
2023-03-20T00:19:29.634Z,77.58
2023-03-20T00:21:57.196Z,78.11
2023-03-20T00:24:25.612Z,77.79
2023-03-20T00:26:53.234Z,77.66
2023-03-20T00:29:32.011Z,77.56
2023-03-20T00:31:59.378Z,77.54
2023-03-20T00:34:29.636Z,77.74
2023-03-20T00:36:57.040Z,77.73
2023-03-20T00:39:24.462Z,77.52
2023-03-20T00:42:16.246Z,77.33
2023-03-20T00:44:53.266Z,78.23
2023-03-20T00:47:22.688Z,77.72
2023-03-20T00:49:51.318Z,78.30
2023-03-20T00:52:19.486Z,78.17
2023-03-20T00:54:46.446Z,77.99
2023-03-20T00:57:19.541Z,77.91
2023-03-20T00:59:56.984Z,78.09
2023-03-20T01:02:29.138Z,77.81
2023-03-20T01:04:56.108Z,77.99
2023-03-20T01:07:22.711Z,77.73
2023-03-20T01:09:49.676Z,77.57
2023-03-20T01:12:16.511Z,77.50
2023-03-20T01:14:44.121Z,77.46
2023-03-20T01:17:21.765Z,77.73
2023-03-20T01:19:48.573Z,77.39
2023-03-20T01:22:16.075Z,77.58
2023-03-20T01:24:42.639Z,77.12
2023-03-20T01:27:15.994Z,77.00
2023-03-20T01:29:42.781Z,77.01
2023-03-20T01:32:13.139Z,76.87
2023-03-20T01:34:39.820Z,76.63
2023-03-20T01:37:13.138Z,76.71
2023-03-20T01:39:39.858Z,76.92
2023-03-20T01:42:08.720Z,76.26
2023-03-20T01:44:38.383Z,76.44
2023-03-20T01:47:15.381Z,76.74
2023-03-20T01:50:19.612Z,76.29
2023-03-20T01:52:48.128Z,76.40
2023-03-20T01:55:14.793Z,76.57
2023-03-20T01:57:42.102Z,76.58
2023-03-20T02:00:15.708Z,76.38
2023-03-20T02:02:45.360Z,76.10
2023-03-20T02:05:14.604Z,76.57
2023-03-20T02:07:41.775Z,76.66
2023-03-20T02:10:12.316Z,76.37
2023-03-20T02:12:39.850Z,76.38
2023-03-20T02:15:07.742Z,76.52
2023-03-20T02:17:34.691Z,76.28
2023-03-20T02:20:17.864Z,76.43
2023-03-20T02:23:05.687Z,75.89
2023-03-20T02:26:19.142Z,75.56
2023-03-20T02:28:54.677Z,75.92
2023-03-20T02:31:59.968Z,75.68
2023-03-20T02:34:55.419Z,75.73
2023-03-20T02:37:52.629Z,75.94
2023-03-20T02:40:49.885Z,75.96
2023-03-20T02:43:43.788Z,75.02
2023-03-20T02:46:32.341Z,75.42
2023-03-20T02:49:34.485Z,76.02
2023-03-20T02:52:34.545Z,75.78
2023-03-20T02:55:27.519Z,76.29
2023-03-20T02:58:20.234Z,76.46
2023-03-20T03:01:00.110Z,76.38
2023-03-20T03:03:46.360Z,76.25
2023-03-20T03:06:39.327Z,75.91
2023-03-20T03:09:14.892Z,76.03
2023-03-20T03:11:54.792Z,76.81
2023-03-20T03:14:37.344Z,76.87
2023-03-20T03:17:12.311Z,76.82
2023-03-20T03:19:47.793Z,76.50
2023-03-20T03:22:24.804Z,77.15
2023-03-20T03:24:54.020Z,77.03
2023-03-20T03:27:44.076Z,76.94
2023-03-20T03:30:13.716Z,77.20
2023-03-20T03:32:47.969Z,77.51
2023-03-20T03:35:19.486Z,77.19
2023-03-20T03:37:52.235Z,77.04
2023-03-20T03:40:30.588Z,77.46
2023-03-20T03:43:20.579Z,77.75
2023-03-20T03:45:56.070Z,77.70
2023-03-20T03:48:31.190Z,77.91
2023-03-20T03:51:05.165Z,78.50
2023-03-20T03:53:37.079Z,78.23
2023-03-20T03:56:11.307Z,78.38
2023-03-20T03:58:42.126Z,78.53
2023-03-20T04:01:12.594Z,79.07
2023-03-20T04:03:46.884Z,79.21
2023-03-20T04:06:16.009Z,79.23
2023-03-20T04:08:43.571Z,78.94
2023-03-20T04:11:22.359Z,78.83
2023-03-20T04:13:51.312Z,79.12
2023-03-20T04:16:21.816Z,79.32
2023-03-20T04:18:48.522Z,78.92
2023-03-20T04:21:17.959Z,79.27
2023-03-20T04:23:44.714Z,78.98
2023-03-20T04:26:11.787Z,78.92
2023-03-20T04:28:38.654Z,79.18
2023-03-20T04:31:05.626Z,79.25
2023-03-20T04:33:32.769Z,79.09
2023-03-20T04:35:59.576Z,79.60
2023-03-20T04:38:27.136Z,79.02
2023-03-20T04:40:53.777Z,78.97
2023-03-20T04:43:20.524Z,78.97
2023-03-20T04:45:47.621Z,79.22
2023-03-20T04:48:14.594Z,79.15
2023-03-20T04:50:41.478Z,79.03
2023-03-20T04:53:08.286Z,78.75
2023-03-20T04:55:35.516Z,78.72
2023-03-20T04:58:05.116Z,78.95
2023-03-20T05:00:31.786Z,78.66
2023-03-20T05:02:58.868Z,78.89
2023-03-20T05:05:25.884Z,79.29
2023-03-20T05:07:52.646Z,79.00
2023-03-20T05:10:19.891Z,78.85
2023-03-20T05:12:47.656Z,79.25
2023-03-20T05:15:15.355Z,79.46
2023-03-20T05:17:42.321Z,79.60
2023-03-20T05:20:09.468Z,79.64
2023-03-20T05:22:36.192Z,79.51
2023-03-20T05:25:03.608Z,78.67
2023-03-20T05:27:30.668Z,78.95
2023-03-20T05:29:57.425Z,78.17
2023-03-20T05:32:24.045Z,79.03
2023-03-20T05:34:50.926Z,79.25
2023-03-20T05:37:17.832Z,79.63
2023-03-20T05:39:44.617Z,78.93
2023-03-20T05:42:11.225Z,78.83
2023-03-20T05:44:38.060Z,78.44
2023-03-20T05:47:05.149Z,78.23
2023-03-20T05:49:32.485Z,78.22
2023-03-20T05:51:59.429Z,77.87
2023-03-20T05:54:26.128Z,78.35
2023-03-20T05:56:52.892Z,77.57
2023-03-20T05:59:19.702Z,77.73
2023-03-20T06:01:47.022Z,77.50
2023-03-20T06:04:13.884Z,77.40
2023-03-20T06:06:42.192Z,77.88
2023-03-20T06:09:11.787Z,77.11
2023-03-20T06:11:38.515Z,76.97
2023-03-20T06:14:07.822Z,76.64
2023-03-20T06:16:34.905Z,76.81
2023-03-20T06:19:02.019Z,76.29
2023-03-20T06:21:29.406Z,76.59
2023-03-20T06:23:58.400Z,76.52
2023-03-20T06:26:25.313Z,76.03
2023-03-20T06:28:52.074Z,75.66
2023-03-20T06:31:24.274Z,76.13
2023-03-20T06:33:51.023Z,76.16
2023-03-20T06:36:17.793Z,76.27
2023-03-20T06:38:46.709Z,76.26
2023-03-20T06:41:33.852Z,76.29
2023-03-20T06:44:03.754Z,75.90
2023-03-20T06:46:30.494Z,75.99
2023-03-20T06:48:57.223Z,75.81
2023-03-20T06:51:24.033Z,76.05
2023-03-20T06:53:51.270Z,76.03
2023-03-20T06:56:19.606Z,75.69
2023-03-20T06:58:46.483Z,75.73
2023-03-20T07:01:19.264Z,75.62
2023-03-20T07:03:46.739Z,75.91
2023-03-20T07:06:14.067Z,76.07
2023-03-20T07:08:41.233Z,75.83
2023-03-20T07:11:11.454Z,75.71
2023-03-20T07:13:40.935Z,74.91
2023-03-20T07:16:08.563Z,74.89
2023-03-20T07:18:35.292Z,74.93
2023-03-20T07:21:04.303Z,74.71
2023-03-20T07:23:31.841Z,74.53
2023-03-20T07:25:58.978Z,74.53
2023-03-20T07:28:26.085Z,74.46
2023-03-20T07:30:52.847Z,74.17
2023-03-20T07:33:19.620Z,74.91
2023-03-20T07:35:46.345Z,74.94
2023-03-20T07:38:15.423Z,74.60
2023-03-20T07:40:42.634Z,74.49
2023-03-20T07:43:09.224Z,74.04
2023-03-20T07:45:36.073Z,74.20
2023-03-20T07:48:02.877Z,73.96
2023-03-20T07:50:30.075Z,73.77
2023-03-20T07:52:57.174Z,73.63
2023-03-20T07:55:23.956Z,73.54
2023-03-20T07:57:51.147Z,73.54
2023-03-20T08:00:19.136Z,73.54
2023-03-20T08:02:46.274Z,73.46
2023-03-20T08:05:12.910Z,72.89
2023-03-20T08:07:41.955Z,73.23
2023-03-20T08:10:11.542Z,72.44
2023-03-20T08:12:38.112Z,71.96
2023-03-20T08:15:05.146Z,70.65
2023-03-20T08:17:34.490Z,70.50
2023-03-20T08:20:01.563Z,70.55
2023-03-20T08:22:31.074Z,69.70
2023-03-20T08:24:57.648Z,68.73
2023-03-20T08:27:25.120Z,68.64
2023-03-20T08:29:51.951Z,68.56
2023-03-20T08:32:18.770Z,67.63
2023-03-20T08:34:48.382Z,68.00
2023-03-20T08:37:17.323Z,67.63
2023-03-20T08:39:44.390Z,67.54
2023-03-20T08:42:11.503Z,67.98
2023-03-20T08:44:38.035Z,67.37
2023-03-20T08:47:05.611Z,67.53
2023-03-20T08:49:32.175Z,66.58
2023-03-20T08:51:59.888Z,66.50
2023-03-20T08:54:27.594Z,66.72
2023-03-20T08:56:54.122Z,66.25
2023-03-20T08:59:21.233Z,66.10
2023-03-20T09:01:50.026Z,65.37
2023-03-20T09:04:17.885Z,65.23
2023-03-20T09:06:44.494Z,64.53
2023-03-20T09:09:11.453Z,63.43
2023-03-20T09:11:38.079Z,62.37
2023-03-20T09:14:04.616Z,61.85
2023-03-20T09:16:31.293Z,61.19
2023-03-20T09:18:57.904Z,61.26
2023-03-20T09:21:24.554Z,61.38
2023-03-20T09:23:51.101Z,61.73
2023-03-20T09:26:17.890Z,60.98
2023-03-20T09:28:44.420Z,61.25
2023-03-20T09:31:12.116Z,61.07
2023-03-20T09:33:38.748Z,59.69
2023-03-20T09:36:05.731Z,60.00
2023-03-20T09:38:32.274Z,60.11
2023-03-20T09:41:03.845Z,60.45
2023-03-20T09:43:42.393Z,59.42
2023-03-20T09:46:16.156Z,58.95
2023-03-20T09:49:13.588Z,59.12
2023-03-20T09:51:55.885Z,58.31
2023-03-20T09:54:37.723Z,58.12
2023-03-20T09:57:28.647Z,58.92
2023-03-20T10:00:05.660Z,58.63
2023-03-20T10:02:45.565Z,59.04
2023-03-20T10:05:22.434Z,59.10
2023-03-20T10:07:49.634Z,59.09
2023-03-20T10:10:20.412Z,58.81
2023-03-20T10:12:54.074Z,58.96
2023-03-20T10:15:35.040Z,58.97
2023-03-20T10:18:24.508Z,58.77
2023-03-20T10:21:07.099Z,59.12
2023-03-20T10:23:38.160Z,59.79
2023-03-20T10:26:17.176Z,60.50
2023-03-20T10:28:55.974Z,60.59
2023-03-20T10:31:33.765Z,60.43
2023-03-20T10:34:28.259Z,60.43
2023-03-20T10:37:22.778Z,57.58
2023-03-20T10:40:01.446Z,58.61
2023-03-20T10:42:33.749Z,59.18
2023-03-20T10:45:28.603Z,59.14
2023-03-20T10:47:59.523Z,58.95
2023-03-20T10:50:36.029Z,58.87
2023-03-20T10:53:04.169Z,59.69
2023-03-20T10:55:44.323Z,59.77
2023-03-20T10:58:26.679Z,59.29
2023-03-20T11:00:56.430Z,59.13
2023-03-20T11:03:26.270Z,60.42
2023-03-20T11:06:10.522Z,60.04
2023-03-20T11:08:46.807Z,60.14
2023-03-20T11:11:13.530Z,59.95
2023-03-20T11:13:44.116Z,60.64
2023-03-20T11:16:22.656Z,60.40
2023-03-20T11:18:50.724Z,60.11
2023-03-20T11:21:21.411Z,59.82
2023-03-20T11:23:48.651Z,59.77
2023-03-20T11:26:28.058Z,59.79
2023-03-20T11:29:01.232Z,59.27
2023-03-20T11:31:38.285Z,58.83
2023-03-20T11:34:04.836Z,59.65
2023-03-20T11:36:34.693Z,59.56
2023-03-20T11:39:16.348Z,60.30
2023-03-20T11:41:54.329Z,60.19
2023-03-20T11:44:23.692Z,59.36
2023-03-20T11:47:05.754Z,60.09
2023-03-20T11:49:45.658Z,60.75
2023-03-20T11:52:14.895Z,60.95
2023-03-20T11:54:49.448Z,61.69
2023-03-20T11:57:33.400Z,61.72
2023-03-20T12:00:06.556Z,61.44
2023-03-20T12:02:35.788Z,61.49
2023-03-20T12:05:17.377Z,61.27
2023-03-20T12:07:46.557Z,62.07
2023-03-20T12:10:15.199Z,63.28
2023-03-20T12:12:57.218Z,63.63
2023-03-20T12:15:40.299Z,63.26
2023-03-20T12:18:31.610Z,63.41
2023-03-20T12:21:03.790Z,64.11
2023-03-20T12:23:43.987Z,65.07
2023-03-20T12:26:13.854Z,65.08
2023-03-20T12:28:46.413Z,65.90
2023-03-20T12:31:46.786Z,66.09
2023-03-20T12:34:21.712Z,65.59
2023-03-20T12:36:50.289Z,67.15
2023-03-20T12:39:24.175Z,65.90
2023-03-20T12:42:34.768Z,65.61
2023-03-20T12:45:20.094Z,66.25
2023-03-20T12:48:18.347Z,65.87
2023-03-20T12:50:52.421Z,66.18
2023-03-20T12:53:53.624Z,66.06
2023-03-20T12:56:40.728Z,65.81
2023-03-20T12:59:19.264Z,66.40
2023-03-20T13:01:55.729Z,67.15
2023-03-20T13:04:40.930Z,67.20
2023-03-20T13:07:20.366Z,67.52
2023-03-20T13:10:27.590Z,67.11
2023-03-20T13:13:08.218Z,67.24
2023-03-20T13:15:56.654Z,66.16
2023-03-20T13:18:25.000Z,66.19
2023-03-20T13:20:56.440Z,66.14
2023-03-20T13:23:41.966Z,65.75
2023-03-20T13:26:17.780Z,65.74
2023-03-20T13:29:19.583Z,65.29
2023-03-20T13:31:54.312Z,65.58
2023-03-20T13:35:02.431Z,64.96
2023-03-20T13:37:39.777Z,64.76
2023-03-20T13:40:13.397Z,65.86
2023-03-20T13:42:47.766Z,65.52
2023-03-20T13:45:28.431Z,65.61
2023-03-20T13:47:58.807Z,65.40
2023-03-20T13:50:45.901Z,65.21
2023-03-20T13:53:30.700Z,65.07
2023-03-20T13:56:26.572Z,64.65
2023-03-20T13:59:08.763Z,64.70
2023-03-20T14:02:17.924Z,65.61
2023-03-20T14:04:45.900Z,64.54
2023-03-20T14:07:55.828Z,65.40
2023-03-20T14:10:22.390Z,65.49
2023-03-20T14:12:51.140Z,66.15
2023-03-20T14:15:19.301Z,65.55
2023-03-20T14:17:49.522Z,66.17
2023-03-20T14:20:41.110Z,65.87
2023-03-20T14:23:20.779Z,66.16
2023-03-20T14:25:48.562Z,66.30
2023-03-20T14:28:15.129Z,65.39
2023-03-20T14:30:44.275Z,65.64
2023-03-20T14:33:17.358Z,65.60
2023-03-20T14:35:45.160Z,65.38
2023-03-20T14:38:21.034Z,65.16
2023-03-20T14:41:13.556Z,65.17
2023-03-20T14:43:58.681Z,65.58
2023-03-20T14:46:48.198Z,65.31
2023-03-20T14:49:36.831Z,65.88
2023-03-20T14:52:28.122Z,66.12
2023-03-20T14:54:55.813Z,65.54
2023-03-20T14:57:48.719Z,65.67
2023-03-20T15:00:25.473Z,65.55
2023-03-20T15:03:05.916Z,65.86
2023-03-20T15:05:34.937Z,66.25
2023-03-20T15:08:12.773Z,66.54
2023-03-20T15:10:50.620Z,67.05
2023-03-20T15:13:18.063Z,67.37
2023-03-20T15:16:05.304Z,67.43
2023-03-20T15:18:37.432Z,67.13
2023-03-20T15:21:04.324Z,67.42
2023-03-20T15:23:31.006Z,67.27
2023-03-20T15:26:00.564Z,66.90
2023-03-20T15:28:27.700Z,67.03
2023-03-20T15:30:59.187Z,67.24
2023-03-20T15:33:35.959Z,68.43
2023-03-20T15:36:14.911Z,69.20
2023-03-20T15:38:41.770Z,70.94
2023-03-20T15:41:08.696Z,70.96
2023-03-20T15:43:35.888Z,72.30
2023-03-20T15:46:17.330Z,72.19
2023-03-20T15:48:48.901Z,72.67
2023-03-20T15:51:16.412Z,73.22
2023-03-20T15:53:46.249Z,74.14
2023-03-20T15:56:19.874Z,72.88
2023-03-20T15:58:50.097Z,73.60
2023-03-20T16:01:23.748Z,73.64
2023-03-20T16:03:51.396Z,73.37
2023-03-20T16:06:24.476Z,74.15
2023-03-20T16:09:05.114Z,74.14
2023-03-20T16:11:43.916Z,74.41
2023-03-20T16:14:16.336Z,74.82
2023-03-20T16:16:43.995Z,75.64
2023-03-20T16:19:12.846Z,75.44
2023-03-20T16:21:43.819Z,76.14
2023-03-20T16:24:18.039Z,76.97
2023-03-20T16:26:48.201Z,77.63
2023-03-20T16:29:15.672Z,77.44
2023-03-20T16:31:49.745Z,77.11
2023-03-20T16:34:42.710Z,78.11
2023-03-20T16:37:24.250Z,76.93
2023-03-20T16:40:04.076Z,76.72
2023-03-20T16:42:31.349Z,76.84
2023-03-20T16:44:58.646Z,76.63
2023-03-20T16:47:34.889Z,75.91
2023-03-20T16:50:35.236Z,76.89
2023-03-20T16:53:02.027Z,76.06
2023-03-20T16:55:31.708Z,75.80
2023-03-20T16:58:03.433Z,75.85
2023-03-20T17:00:33.385Z,76.29
2023-03-20T17:03:16.564Z,76.12
2023-03-20T17:05:57.926Z,75.95
2023-03-20T17:08:48.653Z,76.11
2023-03-20T17:11:26.654Z,76.20
2023-03-20T17:13:53.676Z,75.44
2023-03-20T17:16:21.628Z,75.34
2023-03-20T17:19:00.087Z,75.74
2023-03-20T17:21:26.736Z,75.16
2023-03-20T17:23:53.468Z,74.85
2023-03-20T17:26:20.021Z,75.16
2023-03-20T17:28:46.633Z,74.90
2023-03-20T17:31:16.903Z,74.79
2023-03-20T17:33:44.508Z,74.80
2023-03-20T17:36:26.679Z,73.41
2023-03-20T17:38:54.640Z,73.19
2023-03-20T17:41:22.957Z,73.04
2023-03-20T17:43:51.583Z,72.47
2023-03-20T17:46:19.266Z,72.17
2023-03-20T17:48:48.034Z,72.12
2023-03-20T17:51:14.976Z,72.08
2023-03-20T17:53:41.596Z,71.81
2023-03-20T17:56:17.012Z,71.60
2023-03-20T17:58:46.349Z,71.83
2023-03-20T18:01:13.571Z,71.44
2023-03-20T18:03:40.760Z,71.29
2023-03-20T18:06:08.107Z,71.58
2023-03-20T18:08:34.718Z,71.81
2023-03-20T18:11:01.266Z,71.99
2023-03-20T18:13:29.236Z,71.75
2023-03-20T18:15:58.606Z,71.90
2023-03-20T18:18:25.824Z,72.27
2023-03-20T18:20:55.464Z,71.88
2023-03-20T18:23:23.114Z,71.92
2023-03-20T18:25:49.684Z,71.86
2023-03-20T18:28:24.508Z,72.16
2023-03-20T18:30:51.720Z,72.04
2023-03-20T18:33:18.404Z,72.20
2023-03-20T18:35:45.197Z,71.74
2023-03-20T18:38:13.776Z,71.95
2023-03-20T18:40:40.570Z,71.88
2023-03-20T18:43:07.124Z,71.61
2023-03-20T18:45:33.728Z,71.99
2023-03-20T18:48:03.751Z,72.02
2023-03-20T18:50:37.619Z,71.81
2023-03-20T18:53:05.958Z,71.90
2023-03-20T18:55:32.712Z,72.06
2023-03-20T18:58:03.590Z,71.65
2023-03-20T19:00:38.205Z,72.19
2023-03-20T19:03:04.925Z,71.86
2023-03-20T19:05:31.525Z,71.80
2023-03-20T19:07:59.803Z,71.73
2023-03-20T19:10:34.474Z,71.92
2023-03-20T19:13:02.604Z,72.44
2023-03-20T19:15:31.080Z,72.69
2023-03-20T19:17:57.595Z,72.60
2023-03-20T19:20:30.580Z,73.11
2023-03-20T19:22:57.265Z,72.89
2023-03-20T19:25:23.721Z,73.08
2023-03-20T19:27:50.186Z,73.17
2023-03-20T19:30:38.251Z,73.29
2023-03-20T19:33:06.861Z,73.36
2023-03-20T19:38:22.049Z,73.35
2023-03-20T19:40:53.064Z,73.55
2023-03-20T19:43:22.922Z,73.96
2023-03-20T19:45:55.965Z,73.58
2023-03-20T19:48:27.061Z,73.82
2023-03-20T19:50:55.764Z,74.02
2023-03-20T19:53:25.011Z,74.33
2023-03-20T19:55:51.548Z,74.33
2023-03-20T19:58:18.086Z,74.08
2023-03-20T20:01:01.014Z,74.21
2023-03-20T20:03:28.293Z,74.26
2023-03-20T20:05:55.658Z,74.18
2023-03-20T20:08:38.380Z,74.23
2023-03-20T20:11:11.912Z,74.39
2023-03-20T20:13:53.437Z,73.93
2023-03-20T20:16:25.886Z,73.96
2023-03-20T20:18:52.449Z,74.24
2023-03-20T20:22:10.025Z,74.47
2023-03-20T20:24:05.948Z,74.41
2023-03-20T20:26:39.019Z,74.63
2023-03-20T20:29:07.595Z,74.48
2023-03-20T20:31:34.215Z,75.08
2023-03-20T20:34:39.977Z,74.80
2023-03-20T20:37:51.142Z,74.38
2023-03-20T20:39:33.910Z,74.38
2023-03-20T20:42:01.142Z,73.99
2023-03-20T20:44:27.822Z,74.13
2023-03-20T20:46:54.302Z,73.92
2023-03-20T20:49:21.123Z,73.77
2023-03-20T20:51:48.453Z,73.89
2023-03-20T20:54:15.728Z,74.03
2023-03-20T20:56:42.262Z,74.06
2023-03-20T20:59:08.865Z,74.06
2023-03-20T21:01:36.105Z,74.01
2023-03-20T21:04:02.906Z,73.67
2023-03-20T21:06:54.208Z,73.69
2023-03-20T21:09:16.424Z,73.80
2023-03-20T21:11:42.927Z,73.87
2023-03-20T21:14:09.516Z,74.15
2023-03-20T21:16:36.160Z,74.72
2023-03-20T21:19:02.732Z,74.94
2023-03-20T21:21:30.395Z,74.86
2023-03-20T21:23:57.109Z,76.00
2023-03-20T21:26:23.770Z,76.14
2023-03-20T21:28:50.510Z,76.09
2023-03-20T21:31:28.590Z,76.46
2023-03-20T21:33:58.452Z,76.94
2023-03-20T21:36:25.941Z,76.96
2023-03-20T21:39:09.429Z,77.74
2023-03-20T21:41:38.301Z,78.34
2023-03-20T21:44:06.473Z,78.10
2023-03-20T21:47:15.365Z,78.26
2023-03-20T21:55:45.451Z,77.67
2023-03-20T22:03:35.221Z,77.80
2023-03-20T22:15:16.118Z,77.35
2023-03-20T22:20:44.768Z,76.93
2023-03-20T22:26:18.124Z,76.80
2023-03-20T22:42:49.666Z,76.30
2023-03-20T22:45:09.118Z,76.75
2023-03-20T22:47:36.531Z,76.63
2023-03-20T22:50:03.384Z,76.66
2023-03-20T22:52:45.481Z,76.40
2023-03-20T22:55:14.695Z,76.69
2023-03-20T22:57:50.170Z,76.57
2023-03-20T23:00:26.448Z,76.60
2023-03-20T23:02:57.229Z,76.53
2023-03-20T23:05:27.086Z,76.64
2023-03-20T23:07:53.590Z,76.50
2023-03-20T23:10:23.679Z,76.45
2023-03-20T23:12:50.344Z,76.26
2023-03-20T23:15:17.091Z,76.38
2023-03-20T23:17:47.380Z,76.51
2023-03-20T23:20:18.764Z,76.08
2023-03-20T23:22:46.806Z,76.20
2023-03-20T23:25:21.045Z,76.30
2023-03-20T23:27:59.002Z,76.17
2023-03-20T23:30:30.919Z,76.53
2023-03-20T23:33:00.897Z,76.42
2023-03-20T23:35:27.452Z,76.19
2023-03-20T23:37:53.915Z,76.25
2023-03-20T23:40:20.640Z,75.94
2023-03-20T23:42:47.278Z,76.18
2023-03-20T23:45:20.613Z,76.07
2023-03-20T23:47:48.355Z,75.46
2023-03-20T23:50:26.526Z,75.51
2023-03-20T23:53:03.614Z,75.54
2023-03-20T23:55:36.240Z,75.44
2023-03-20T23:58:02.742Z,75.39
